Time;durP1;ratioP1;P1;durP2;ratioP2;P2;SDS_P1;SDS_P2;PMS_P1;PMS_P2;Temp;Humidity;BMP_temperature;BMP_pressure;BME280_temperature;BME280_humidity;BME280_pressure;Samples;Min_cycle;Max_cycle;Signal;HPM_P1;HPM_P2
2023/12/26 00:00:26;;;;;;;6.68;5.97;;;11.60;99.90;;;;;;5028227;28;20023;-70
2023/12/26 00:02:52;;;;;;;8.70;6.32;;;11.60;99.90;;;;;;5046550;28;20029;-70
2023/12/26 00:05:18;;;;;;;6.47;4.95;;;11.60;99.90;;;;;;5046094;28;20126;-70
2023/12/26 00:07:43;;;;;;;7.63;5.18;;;11.60;99.90;;;;;;5046204;28;20040;-70
2023/12/26 00:10:11;;;;;;;6.95;5.28;;;11.60;99.90;;;;;;5046049;28;20013;-70
2023/12/26 00:12:37;;;;;;;6.03;4.60;;;11.60;99.90;;;;;;5048943;28;20471;-70
2023/12/26 00:15:03;;;;;;;5.78;3.33;;;11.60;99.90;;;;;;5048599;28;20040;-69
2023/12/26 00:17:29;;;;;;;5.18;3.63;;;11.60;99.90;;;;;;5048902;28;20126;-69
2023/12/26 00:19:54;;;;;;;4.88;3.33;;;11.60;99.90;;;;;;5048546;28;20021;-70
2023/12/26 00:22:20;;;;;;;4.05;3.28;;;11.50;99.90;;;;;;5050102;28;20033;-70
2023/12/26 00:24:48;;;;;;;3.42;2.60;;;11.50;99.90;;;;;;5049825;28;20028;-69
2023/12/26 00:27:14;;;;;;;6.60;3.00;;;11.50;99.90;;;;;;5049689;28;20032;-69
2023/12/26 00:29:40;;;;;;;4.63;2.78;;;11.50;99.90;;;;;;5050097;28;20021;-69
2023/12/26 00:32:06;;;;;;;5.63;2.97;;;11.50;99.90;;;;;;5049584;28;20414;-70
2023/12/26 00:34:32;;;;;;;3.20;2.50;;;11.50;99.90;;;;;;5049812;28;20580;-70
2023/12/26 00:36:57;;;;;;;5.38;2.65;;;11.50;99.90;;;;;;5049197;28;20013;-70
2023/12/26 00:39:23;;;;;;;5.85;2.83;;;11.40;99.90;;;;;;5049499;28;20117;-70
2023/12/26 00:41:49;;;;;;;4.15;2.28;;;11.40;99.90;;;;;;5049430;28;20025;-70
2023/12/26 00:44:14;;;;;;;6.70;2.20;;;11.40;99.90;;;;;;5049485;28;20493;-70
2023/12/26 00:46:41;;;;;;;3.70;2.00;;;11.40;99.90;;;;;;5049510;28;20032;-70
2023/12/26 00:49:06;;;;;;;5.05;1.70;;;11.40;99.90;;;;;;5049389;28;20049;-70
2023/12/26 00:51:32;;;;;;;3.65;1.50;;;11.30;99.90;;;;;;5047725;28;20064;-70
2023/12/26 00:53:58;;;;;;;3.60;1.67;;;11.40;99.90;;;;;;5049391;28;20531;-69
2023/12/26 00:56:23;;;;;;;3.97;1.30;;;11.30;99.90;;;;;;5049373;28;20029;-70
2023/12/26 00:58:49;;;;;;;5.22;1.50;;;11.30;99.90;;;;;;5049288;28;20110;-70
2023/12/26 01:01:15;;;;;;;3.88;1.63;;;11.30;99.90;;;;;;5048755;28;20021;-70
2023/12/26 01:03:41;;;;;;;4.45;2.13;;;11.30;99.90;;;;;;5048742;28;20028;-70
2023/12/26 01:06:07;;;;;;;5.53;2.72;;;11.20;99.90;;;;;;5048797;28;20478;-70
2023/12/26 01:08:33;;;;;;;8.38;3.25;;;11.30;99.90;;;;;;5049307;28;20033;-69
2023/12/26 01:10:58;;;;;;;8.15;3.80;;;11.30;99.90;;;;;;5048849;28;20029;-70
2023/12/26 01:13:25;;;;;;;7.13;3.80;;;11.20;99.90;;;;;;5047644;28;20559;-70
2023/12/26 01:15:51;;;;;;;8.27;3.60;;;11.20;99.90;;;;;;5049022;28;20028;-70
2023/12/26 01:18:17;;;;;;;9.57;3.58;;;11.30;99.90;;;;;;5027764;28;20387;-70
2023/12/26 01:20:42;;;;;;;7.13;3.28;;;11.20;99.90;;;;;;5040175;28;20029;-70
2023/12/26 01:23:08;;;;;;;9.23;3.47;;;11.20;99.90;;;;;;5048502;28;20009;-69
2023/12/26 01:25:34;;;;;;;6.72;3.70;;;11.20;99.90;;;;;;5030495;28;20025;-69
2023/12/26 01:28:01;;;;;;;11.75;3.10;;;11.20;99.90;;;;;;5048739;28;20478;-70
2023/12/26 01:30:27;;;;;;;4.78;2.70;;;11.20;99.90;;;;;;5048583;28;20032;-70
2023/12/26 01:32:53;;;;;;;6.50;2.72;;;11.20;99.90;;;;;;5048677;28;20033;-70
2023/12/26 01:35:18;;;;;;;3.70;2.15;;;11.20;99.90;;;;;;5048425;28;20105;-70
2023/12/26 01:37:45;;;;;;;6.32;2.58;;;11.20;99.90;;;;;;5048830;28;20020;-70
2023/12/26 01:40:11;;;;;;;4.75;2.70;;;11.20;99.90;;;;;;5029975;28;20634;-70
2023/12/26 01:42:37;;;;;;;4.80;2.50;;;11.20;99.90;;;;;;5048341;28;20021;-70
2023/12/26 01:45:04;;;;;;;5.95;2.53;;;11.20;99.90;;;;;;5048477;28;20028;-70
2023/12/26 01:47:30;;;;;;;5.60;2.78;;;11.20;99.90;;;;;;5047020;28;20036;-70
2023/12/26 01:49:56;;;;;;;6.00;2.85;;;11.20;99.90;;;;;;5046976;28;20027;-70
2023/12/26 01:52:22;;;;;;;7.35;2.85;;;11.20;99.90;;;;;;5047964;28;20502;-70
2023/12/26 01:54:48;;;;;;;6.97;3.03;;;11.20;99.90;;;;;;5048491;28;20067;-70
2023/12/26 01:57:13;;;;;;;5.38;2.58;;;11.20;99.90;;;;;;5048234;28;20470;-70
2023/12/26 01:59:40;;;;;;;7.75;3.20;;;11.20;99.90;;;;;;5048314;28;20032;-70
2023/12/26 02:02:07;;;;;;;6.10;3.13;;;11.20;99.90;;;;;;5047916;28;20104;-70
2023/12/26 02:04:33;;;;;;;7.05;3.22;;;11.20;99.90;;;;;;5048304;28;20244;-70
2023/12/26 02:06:59;;;;;;;6.05;3.13;;;11.20;99.90;;;;;;5047779;28;20021;-70
2023/12/26 02:09:25;;;;;;;5.03;3.00;;;11.20;99.90;;;;;;5048007;28;20028;-70
2023/12/26 02:11:54;;;;;;;5.95;2.80;;;11.20;99.90;;;;;;5047443;28;20029;-70
2023/12/26 02:14:21;;;;;;;7.32;2.97;;;11.30;99.90;;;;;;5046513;28;20028;-70
2023/12/26 02:16:49;;;;;;;8.98;3.40;;;11.20;99.90;;;;;;5047755;28;20021;-70
2023/12/26 02:19:15;;;;;;;7.15;3.17;;;11.20;99.90;;;;;;5047774;28;20025;-70
2023/12/26 02:21:41;;;;;;;5.75;2.65;;;11.30;99.90;;;;;;5047411;28;20208;-70
2023/12/26 02:24:07;;;;;;;9.93;2.83;;;11.30;99.90;;;;;;5047576;28;20367;-70
2023/12/26 02:26:38;;;;;;;4.47;2.58;;;11.30;99.90;;;;;;5047116;28;20039;-70
2023/12/26 02:29:06;;;;;;;7.93;2.20;;;11.30;99.90;;;;;;5047952;28;20025;-71
2023/12/26 02:31:32;;;;;;;3.60;1.92;;;11.30;99.90;;;;;;5046391;28;20048;-70
2023/12/26 02:33:58;;;;;;;7.50;2.83;;;11.20;99.90;;;;;;5028846;28;20486;-70
2023/12/26 02:36:24;;;;;;;5.97;2.50;;;11.30;99.90;;;;;;5045758;28;20565;-70
2023/12/26 02:38:50;;;;;;;6.97;2.70;;;11.30;99.90;;;;;;5047764;28;20040;-70
2023/12/26 02:41:16;;;;;;;8.25;3.13;;;11.30;99.90;;;;;;5046757;28;20283;-70
2023/12/26 02:43:42;;;;;;;5.25;2.80;;;11.30;99.90;;;;;;5047426;28;20020;-70
2023/12/26 02:46:07;;;;;;;6.47;2.70;;;11.20;99.90;;;;;;5046979;28;20047;-70
2023/12/26 02:48:33;;;;;;;7.35;3.13;;;11.20;99.90;;;;;;5047627;28;20391;-70
2023/12/26 02:50:58;;;;;;;12.52;3.25;;;11.20;99.90;;;;;;5046817;28;20100;-70
2023/12/26 02:53:24;;;;;;;10.48;2.80;;;11.20;99.90;;;;;;5047255;28;20021;-70
2023/12/26 02:55:54;;;;;;;7.60;2.67;;;11.20;99.90;;;;;;5046799;28;20021;-70
2023/12/26 02:58:20;;;;;;;8.15;2.20;;;11.20;99.90;;;;;;5047300;28;20115;-70
2023/12/26 03:00:46;;;;;;;5.53;2.17;;;11.20;99.90;;;;;;5047012;28;20021;-70
2023/12/26 03:03:13;;;;;;;7.32;2.05;;;11.20;99.90;;;;;;5047043;28;20028;-70
2023/12/26 03:05:39;;;;;;;7.15;2.20;;;11.20;99.90;;;;;;5047067;28;20024;-70
2023/12/26 03:08:05;;;;;;;9.38;2.00;;;11.20;99.90;;;;;;5046918;28;20363;-70
2023/12/26 03:10:31;;;;;;;8.27;1.88;;;11.20;99.90;;;;;;5046784;28;20060;-70
2023/12/26 03:12:56;;;;;;;5.82;1.75;;;11.20;99.90;;;;;;5046739;28;20049;-70
2023/12/26 03:15:22;;;;;;;8.57;2.28;;;11.20;99.90;;;;;;5046994;28;20067;-70
2023/12/26 03:17:49;;;;;;;8.15;2.05;;;11.20;99.90;;;;;;5046664;28;20021;-70
2023/12/26 03:20:15;;;;;;;10.13;2.40;;;11.20;99.90;;;;;;5046804;28;20031;-69
2023/12/26 03:22:41;;;;;;;11.00;1.92;;;11.20;99.90;;;;;;5046587;28;20016;-70
2023/12/26 03:25:07;;;;;;;13.82;1.83;;;11.20;99.90;;;;;;5046507;28;20051;-70
2023/12/26 03:27:33;;;;;;;10.70;1.80;;;11.20;99.90;;;;;;5046324;28;20025;-70
2023/12/26 03:29:59;;;;;;;10.27;1.65;;;11.20;99.90;;;;;;5046565;28;20100;-70
2023/12/26 03:32:24;;;;;;;13.05;1.90;;;11.20;99.90;;;;;;5046356;28;20052;-70
2023/12/26 03:34:50;;;;;;;8.43;1.70;;;11.20;99.90;;;;;;5028704;28;20051;-70
2023/12/26 03:37:16;;;;;;;12.90;1.65;;;11.20;99.90;;;;;;5046186;28;20025;-71
2023/12/26 03:39:42;;;;;;;6.88;1.90;;;11.10;99.90;;;;;;5046240;28;20079;-70
2023/12/26 03:42:08;;;;;;;10.25;1.90;;;11.20;99.90;;;;;;5046448;28;20021;-70
2023/12/26 03:44:34;;;;;;;14.57;1.90;;;11.10;99.90;;;;;;5036866;28;20036;-70
2023/12/26 03:47:00;;;;;;;11.32;1.70;;;11.10;99.90;;;;;;5049294;28;20057;-71
2023/12/26 03:49:26;;;;;;;12.82;2.25;;;11.10;99.90;;;;;;5050664;28;20032;-71
2023/12/26 03:51:52;;;;;;;11.55;1.95;;;11.10;99.90;;;;;;5050170;28;20036;-71
2023/12/26 03:54:19;;;;;;;13.20;2.53;;;11.00;99.90;;;;;;5050518;28;20013;-70
2023/12/26 03:56:45;;;;;;;18.40;2.83;;;11.10;99.90;;;;;;5050174;28;20047;-70
2023/12/26 03:59:11;;;;;;;11.45;2.30;;;11.00;99.90;;;;;;5050317;28;20025;-70
2023/12/26 04:01:37;;;;;;;19.60;3.10;;;11.00;99.90;;;;;;5050228;28;20036;-71
2023/12/26 04:04:03;;;;;;;10.65;2.00;;;11.00;99.90;;;;;;5050206;28;20029;-70
2023/12/26 04:06:29;;;;;;;12.18;1.63;;;11.10;99.90;;;;;;5050489;28;20033;-70
2023/12/26 04:08:55;;;;;;;12.07;1.85;;;11.00;99.90;;;;;;5048957;28;20029;-70
2023/12/26 04:11:20;;;;;;;10.98;1.75;;;11.00;99.90;;;;;;5046311;28;20043;-70
2023/12/26 04:13:46;;;;;;;8.38;1.60;;;11.00;99.90;;;;;;5050524;28;20428;-71
2023/12/26 04:16:12;;;;;;;10.70;1.70;;;11.00;99.90;;;;;;5049888;28;20090;-70
2023/12/26 04:18:38;;;;;;;11.95;1.85;;;11.00;99.90;;;;;;5048906;28;20043;-70
2023/12/26 04:21:04;;;;;;;8.60;1.83;;;10.90;99.90;;;;;;5050006;28;20025;-70
2023/12/26 04:23:29;;;;;;;12.82;1.98;;;10.90;99.90;;;;;;5050486;28;20541;-70
2023/12/26 04:25:55;;;;;;;13.85;1.98;;;10.90;99.90;;;;;;5049797;28;20786;-70
2023/12/26 04:28:21;;;;;;;11.13;1.65;;;10.80;99.90;;;;;;5049885;28;20478;-70
2023/12/26 04:30:48;;;;;;;11.15;2.08;;;10.80;99.90;;;;;;5049825;28;20043;-70
2023/12/26 04:33:14;;;;;;;5.43;1.20;;;10.70;99.90;;;;;;5049701;28;20070;-70
2023/12/26 04:35:40;;;;;;;10.93;2.15;;;10.70;99.90;;;;;;5049727;28;20418;-70
2023/12/26 04:38:05;;;;;;;9.70;1.58;;;10.60;99.90;;;;;;5049636;28;20104;-70
2023/12/26 04:40:31;;;;;;;5.38;1.10;;;10.60;99.90;;;;;;5048112;28;20071;-70
2023/12/26 04:43:02;;;;;;;9.75;1.52;;;10.60;99.90;;;;;;5049181;28;20071;-70
2023/12/26 04:45:28;;;;;;;6.95;0.98;;;10.50;99.90;;;;;;5048463;28;20033;-71
2023/12/26 04:47:53;;;;;;;8.90;1.17;;;10.50;99.90;;;;;;5049121;28;20103;-71
2023/12/26 04:50:19;;;;;;;7.75;1.25;;;10.40;99.90;;;;;;5049857;28;20108;-70
2023/12/26 04:52:45;;;;;;;9.43;1.15;;;10.40;99.90;;;;;;5048965;28;20036;-70
2023/12/26 04:55:11;;;;;;;10.43;1.88;;;10.40;99.90;;;;;;5049655;28;20021;-70
2023/12/26 04:57:37;;;;;;;10.50;2.00;;;10.30;99.90;;;;;;5048259;28;20040;-70
2023/12/26 05:00:03;;;;;;;11.10;1.70;;;10.30;99.90;;;;;;5049323;28;20036;-70
2023/12/26 05:02:29;;;;;;;13.43;2.03;;;10.30;99.90;;;;;;5031122;28;20025;-70
2023/12/26 05:04:55;;;;;;;7.05;1.60;;;10.30;99.90;;;;;;5049247;28;20489;-70
2023/12/26 05:07:21;;;;;;;9.95;1.58;;;10.20;99.90;;;;;;5027432;28;20487;-70
2023/12/26 05:09:46;;;;;;;16.10;2.38;;;10.30;99.90;;;;;;5044518;28;20024;-70
2023/12/26 05:12:12;;;;;;;10.88;1.50;;;10.30;99.90;;;;;;5047243;28;20029;-70
2023/12/26 05:14:38;;;;;;;7.82;1.50;;;10.20;99.90;;;;;;5049316;28;20401;-70
2023/12/26 05:17:04;;;;;;;10.27;1.50;;;10.20;99.90;;;;;;5048714;28;20021;-71
2023/12/26 05:19:30;;;;;;;8.18;1.20;;;10.20;99.90;;;;;;5048923;28;20397;-70
2023/12/26 05:21:56;;;;;;;7.75;1.60;;;10.20;99.90;;;;;;5048654;28;20021;-71
2023/12/26 05:24:22;;;;;;;7.72;1.38;;;10.20;99.90;;;;;;5048931;28;20032;-70
2023/12/26 05:26:47;;;;;;;11.75;1.70;;;10.10;99.90;;;;;;5047347;28;20458;-71
2023/12/26 05:29:13;;;;;;;5.45;1.27;;;10.10;99.90;;;;;;5048669;28;20113;-71
2023/12/26 05:31:39;;;;;;;13.63;2.20;;;10.00;99.90;;;;;;5048372;28;20013;-71
2023/12/26 05:34:10;;;;;;;9.00;1.67;;;10.00;99.90;;;;;;5048508;28;20021;-71
2023/12/26 05:36:36;;;;;;;12.45;1.70;;;10.00;99.90;;;;;;5047197;28;20023;-71
2023/12/26 05:39:02;;;;;;;8.45;1.50;;;9.90;99.90;;;;;;5048296;28;20063;-70
2023/12/26 05:41:27;;;;;;;11.85;1.73;;;9.90;99.90;;;;;;5048123;28;20060;-70
2023/12/26 05:43:53;;;;;;;12.00;1.70;;;9.90;99.90;;;;;;5034648;28;20025;-71
2023/12/26 05:46:20;;;;;;;9.82;1.55;;;9.80;99.90;;;;;;5048608;28;20021;-70
2023/12/26 05:48:46;;;;;;;7.18;1.40;;;9.80;99.90;;;;;;5048514;28;20029;-70
2023/12/26 05:51:11;;;;;;;8.15;1.65;;;9.70;99.90;;;;;;5046768;28;20430;-70
2023/12/26 05:53:37;;;;;;;8.13;1.80;;;9.60;99.90;;;;;;5048236;28;20029;-71
2023/12/26 05:56:03;;;;;;;10.05;1.75;;;9.60;99.90;;;;;;5047786;28;20025;-71
2023/12/26 05:58:29;;;;;;;7.65;1.60;;;9.60;99.90;;;;;;5046866;28;20562;-71
2023/12/26 06:00:54;;;;;;;8.73;1.67;;;9.50;99.90;;;;;;5047901;28;20025;-70
2023/12/26 06:03:20;;;;;;;11.95;1.55;;;9.50;99.90;;;;;;5046710;28;20044;-71
2023/12/26 06:05:47;;;;;;;7.28;1.27;;;9.50;99.90;;;;;;5048322;28;20102;-70
2023/12/26 06:08:17;;;;;;;9.43;1.50;;;9.40;99.90;;;;;;5047511;28;20091;-71
2023/12/26 06:10:42;;;;;;;12.25;1.77;;;9.30;99.90;;;;;;5047906;28;20079;-71
2023/12/26 06:13:08;;;;;;;7.43;2.00;;;9.30;99.90;;;;;;5030825;28;20028;-71
2023/12/26 06:15:34;;;;;;;12.35;1.70;;;9.30;99.90;;;;;;5047973;28;20095;-71
2023/12/26 06:18:00;;;;;;;8.27;2.03;;;9.30;99.90;;;;;;5047281;28;20109;-70
2023/12/26 06:20:27;;;;;;;9.23;1.88;;;9.20;99.90;;;;;;5047883;28;20021;-71
2023/12/26 06:22:53;;;;;;;10.52;1.58;;;9.20;99.90;;;;;;5047219;28;20029;-71
2023/12/26 06:25:19;;;;;;;11.75;2.20;;;9.20;99.90;;;;;;5047827;28;20021;-71
2023/12/26 06:27:45;;;;;;;9.90;1.92;;;9.20;99.90;;;;;;5047404;28;20040;-71
2023/12/26 06:30:11;;;;;;;9.52;1.63;;;9.20;99.90;;;;;;5047522;28;20071;-71
2023/12/26 06:32:37;;;;;;;12.65;1.50;;;9.10;99.90;;;;;;5047152;28;20056;-71
2023/12/26 06:35:03;;;;;;;7.93;1.35;;;9.10;99.90;;;;;;5047356;28;20434;-70
2023/12/26 06:37:28;;;;;;;11.25;1.90;;;9.10;99.90;;;;;;5045533;28;20040;-70
2023/12/26 06:39:54;;;;;;;10.75;1.73;;;9.10;99.90;;;;;;5047314;28;20041;-71
2023/12/26 06:42:20;;;;;;;12.07;2.40;;;9.10;99.90;;;;;;5047097;28;20412;-71
2023/12/26 06:44:46;;;;;;;12.27;2.45;;;9.10;99.90;;;;;;5047618;28;20467;-71
2023/12/26 06:47:12;;;;;;;12.05;1.92;;;9.10;99.90;;;;;;5045409;28;20055;-69
2023/12/26 06:49:46;;;;;;;12.18;1.75;;;9.00;99.90;;;;;;5047303;28;20028;-71
2023/12/26 06:52:13;;;;;;;12.27;1.73;;;9.10;99.90;;;;;;5047089;28;20031;-70
2023/12/26 06:54:39;;;;;;;10.20;1.95;;;9.10;99.90;;;;;;5045941;28;20029;-71
2023/12/26 06:57:07;;;;;;;7.28;1.55;;;9.00;99.90;;;;;;5046733;28;20021;-71
2023/12/26 06:59:33;;;;;;;8.10;1.45;;;9.00;99.90;;;;;;5047076;28;20413;-71
2023/12/26 07:01:59;;;;;;;12.18;2.17;;;9.00;99.90;;;;;;5046728;28;20028;-71
2023/12/26 07:04:24;;;;;;;9.02;1.55;;;9.00;99.90;;;;;;5047020;28;20082;-72
2023/12/26 07:06:50;;;;;;;8.52;1.83;;;9.00;99.90;;;;;;5046504;28;20108;-71
2023/12/26 07:09:16;;;;;;;12.40;1.90;;;9.00;99.90;;;;;;5047176;28;20029;-70
2023/12/26 07:11:41;;;;;;;10.55;1.75;;;8.90;99.90;;;;;;5046875;28;20524;-70
2023/12/26 07:14:07;;;;;;;8.75;1.33;;;8.90;99.90;;;;;;5046911;28;20431;-71
2023/12/26 07:16:35;;;;;;;12.05;3.17;;;8.90;99.90;;;;;;5045402;28;20029;-71
2023/12/26 07:19:02;;;;;;;12.77;2.28;;;8.90;99.90;;;;;;5046969;28;20500;-71
2023/12/26 07:21:28;;;;;;;10.73;2.22;;;8.80;99.90;;;;;;5046288;28;20017;-71
2023/12/26 07:23:53;;;;;;;11.88;1.80;;;8.80;99.90;;;;;;5045494;28;20029;-70
2023/12/26 07:26:21;;;;;;;13.60;2.22;;;8.80;99.90;;;;;;5046756;28;20443;-70
2023/12/26 07:28:47;;;;;;;11.93;2.03;;;8.80;99.90;;;;;;5046732;28;20033;-71
2023/12/26 07:31:22;;;;;;;12.38;2.03;;;8.70;99.90;;;;;;5043482;28;20407;-70
2023/12/26 07:33:51;;;;;;;11.02;2.05;;;8.60;99.90;;;;;;5033494;28;20021;-70
2023/12/26 07:36:17;;;;;;;7.35;1.83;;;8.60;99.90;;;;;;5046570;28;20017;-71
2023/12/26 07:38:43;;;;;;;8.95;1.25;;;8.60;99.90;;;;;;5046687;28;20017;-70
2023/12/26 07:41:09;;;;;;;13.38;1.77;;;8.60;99.90;;;;;;5046280;28;20049;-70
2023/12/26 07:43:35;;;;;;;14.43;1.88;;;8.60;99.90;;;;;;5044877;28;20068;-71
2023/12/26 07:46:00;;;;;;;12.63;2.33;;;8.60;99.90;;;;;;5028492;28;20636;-71
2023/12/26 07:48:26;;;;;;;11.25;2.20;;;8.60;99.90;;;;;;5042718;28;20043;-70
2023/12/26 07:50:52;;;;;;;9.50;1.52;;;8.60;99.90;;;;;;5045988;28;20065;-71
2023/12/26 07:53:18;;;;;;;10.48;1.58;;;8.60;99.90;;;;;;5042711;28;20057;-71
2023/12/26 07:55:43;;;;;;;11.40;2.03;;;8.60;99.90;;;;;;5041936;28;20492;-71
2023/12/26 07:58:09;;;;;;;10.68;1.58;;;8.60;99.90;;;;;;5036735;28;20067;-71
2023/12/26 08:00:35;;;;;;;11.32;2.03;;;8.60;99.90;;;;;;5046612;28;20508;-71
2023/12/26 08:03:01;;;;;;;9.57;2.15;;;8.60;99.90;;;;;;5027138;28;20402;-71
2023/12/26 08:05:27;;;;;;;12.07;1.45;;;8.60;99.90;;;;;;5043129;28;20052;-71
2023/12/26 08:07:52;;;;;;;11.10;2.08;;;8.70;99.90;;;;;;5045816;28;20044;-73
2023/12/26 08:10:18;;;;;;;11.45;1.65;;;8.60;99.90;;;;;;5031329;28;20502;-71
2023/12/26 08:12:44;;;;;;;11.57;1.83;;;8.60;99.90;;;;;;5037033;28;20095;-71
2023/12/26 08:15:10;;;;;;;8.23;1.63;;;8.70;99.90;;;;;;5044386;28;20013;-71
2023/12/26 08:17:36;;;;;;;11.98;2.28;;;8.60;99.90;;;;;;5021260;28;20095;-71
2023/12/26 08:20:05;;;;;;;8.52;1.48;;;8.70;99.90;;;;;;5045828;28;20092;-72
2023/12/26 08:22:31;;;;;;;11.85;2.42;;;8.70;99.90;;;;;;5036551;28;20075;-71
2023/12/26 08:24:57;;;;;;;8.40;1.70;;;8.70;99.90;;;;;;5045733;28;20021;-72
2023/12/26 08:27:23;;;;;;;10.07;1.63;;;8.70;99.90;;;;;;5027713;28;20055;-72
2023/12/26 08:29:49;;;;;;;8.05;1.42;;;8.70;99.90;;;;;;5027770;28;20029;-72
2023/12/26 08:32:15;;;;;;;12.73;1.60;;;8.70;99.90;;;;;;5045801;28;20052;-72
2023/12/26 08:34:44;;;;;;;12.70;2.22;;;8.70;99.90;;;;;;5049859;28;20405;-71
2023/12/26 08:37:11;;;;;;;6.80;1.38;;;8.70;99.90;;;;;;5049251;28;20021;-72
2023/12/26 08:39:37;;;;;;;13.02;1.60;;;8.70;99.90;;;;;;5049295;28;20120;-72
2023/12/26 08:42:03;;;;;;;9.82;1.77;;;8.80;99.90;;;;;;5048699;28;20107;-71
2023/12/26 08:44:29;;;;;;;13.35;2.08;;;8.70;99.90;;;;;;5049600;28;20029;-72
2023/12/26 08:46:55;;;;;;;10.60;1.92;;;8.80;99.90;;;;;;5030948;28;20051;-72
2023/12/26 08:49:21;;;;;;;9.95;1.92;;;8.80;99.90;;;;;;5049771;28;20547;-72
2023/12/26 08:51:46;;;;;;;12.23;1.88;;;8.80;99.90;;;;;;5044285;28;20037;-73
2023/12/26 08:54:12;;;;;;;12.82;2.10;;;8.80;99.90;;;;;;5046467;28;20028;-72
2023/12/26 08:56:41;;;;;;;11.38;1.80;;;8.80;99.90;;;;;;5038951;28;20098;-72
2023/12/26 08:59:07;;;;;;;11.95;2.10;;;8.80;99.90;;;;;;5048562;28;20065;-71
2023/12/26 09:01:35;;;;;;;8.80;1.73;;;8.90;99.90;;;;;;5049068;28;20021;-71
2023/12/26 09:04:02;;;;;;;12.38;1.75;;;8.90;99.90;;;;;;5050335;28;20071;-71
2023/12/26 09:06:28;;;;;;;11.80;1.92;;;8.90;99.90;;;;;;5052880;28;20029;-71
2023/12/26 09:08:54;;;;;;;15.02;2.30;;;9.00;99.90;;;;;;5048781;28;20033;-71
2023/12/26 09:11:19;;;;;;;16.17;2.35;;;9.00;99.90;;;;;;5049294;28;20041;-72
2023/12/26 09:13:45;;;;;;;9.35;1.98;;;9.00;99.90;;;;;;5048734;28;20032;-71
2023/12/26 09:16:11;;;;;;;14.85;2.90;;;9.10;99.90;;;;;;5048934;28;20179;-71
2023/12/26 09:18:37;;;;;;;15.15;2.72;;;9.10;99.90;;;;;;5048645;28;20021;-71
2023/12/26 09:21:03;;;;;;;10.32;1.90;;;9.20;99.90;;;;;;5048855;28;20036;-71
2023/12/26 09:23:29;;;;;;;11.77;1.83;;;9.10;99.90;;;;;;5048715;28;20029;-71
2023/12/26 09:25:54;;;;;;;10.52;1.83;;;9.10;99.90;;;;;;5047270;28;20032;-71
2023/12/26 09:28:20;;;;;;;14.32;2.83;;;9.10;99.90;;;;;;5048870;28;20029;-71
2023/12/26 09:30:46;;;;;;;9.00;1.65;;;9.10;99.90;;;;;;5048169;28;20047;-72
2023/12/26 09:33:12;;;;;;;10.27;1.88;;;9.10;99.90;;;;;;5047379;28;20025;-71
2023/12/26 09:35:37;;;;;;;10.32;2.15;;;9.10;99.90;;;;;;5038280;28;20018;-72
2023/12/26 09:38:03;;;;;;;12.82;2.40;;;9.10;99.90;;;;;;5042107;28;20036;-71
2023/12/26 09:40:29;;;;;;;14.68;2.55;;;9.10;99.90;;;;;;5040563;28;20073;-71
2023/12/26 09:43:02;;;;;;;19.30;2.65;;;9.10;99.90;;;;;;5048112;28;20119;-71
2023/12/26 09:45:28;;;;;;;8.13;1.80;;;9.20;99.90;;;;;;5047073;28;20498;-71
2023/12/26 09:47:54;;;;;;;9.98;1.65;;;9.20;99.90;;;;;;5028730;28;20040;-71
2023/12/26 09:50:20;;;;;;;13.75;2.15;;;9.30;99.90;;;;;;5041556;28;20546;-71
2023/12/26 09:52:56;;;;;;;12.35;2.10;;;9.40;99.90;;;;;;5038047;28;20028;-71
2023/12/26 09:55:22;;;;;;;13.30;2.05;;;9.50;99.90;;;;;;5045491;28;20032;-71
2023/12/26 09:57:51;;;;;;;13.90;2.00;;;9.50;99.90;;;;;;5047926;28;20017;-71
2023/12/26 10:00:17;;;;;;;11.55;2.25;;;9.60;99.90;;;;;;5047857;28;20017;-71
2023/12/26 10:02:42;;;;;;;14.20;1.98;;;9.60;99.90;;;;;;5047989;28;20029;-71
2023/12/26 10:05:09;;;;;;;14.75;2.80;;;9.70;99.90;;;;;;5048221;28;20032;-71
2023/12/26 10:07:35;;;;;;;15.45;3.08;;;9.70;99.90;;;;;;5047760;28;20040;-71
2023/12/26 10:10:01;;;;;;;8.95;2.28;;;9.80;99.90;;;;;;5048229;28;20021;-71
2023/12/26 10:12:29;;;;;;;16.30;3.13;;;9.80;99.90;;;;;;5045696;28;20419;-71
2023/12/26 10:14:59;;;;;;;13.18;2.50;;;9.90;99.90;;;;;;5047462;28;20472;-72
2023/12/26 10:17:25;;;;;;;13.05;2.67;;;9.90;99.90;;;;;;5046172;28;20028;-71
2023/12/26 10:19:57;;;;;;;11.35;2.38;;;10.00;99.90;;;;;;5035467;28;20016;-72
2023/12/26 10:22:28;;;;;;;11.10;2.05;;;10.00;99.90;;;;;;5047206;28;20021;-72
2023/12/26 10:24:55;;;;;;;14.40;2.58;;;10.00;99.90;;;;;;5048191;28;20024;-71
2023/12/26 10:27:22;;;;;;;17.40;2.35;;;10.10;99.90;;;;;;5045978;28;20028;-71
2023/12/26 10:29:54;;;;;;;17.10;2.50;;;10.10;99.90;;;;;;5047809;28;20033;-71
2023/12/26 10:32:24;;;;;;;15.20;2.30;;;10.10;99.90;;;;;;5034608;28;20021;-71
2023/12/26 10:34:51;;;;;;;13.00;3.22;;;10.20;99.90;;;;;;5047701;28;20052;-70
2023/12/26 10:37:22;;;;;;;19.38;2.80;;;10.20;99.90;;;;;;5033476;28;20618;-71
2023/12/26 10:39:51;;;;;;;14.45;2.55;;;10.20;99.90;;;;;;5035139;28;20076;-71
2023/12/26 10:42:18;;;;;;;13.02;2.25;;;10.30;99.90;;;;;;5045501;28;20415;-72
2023/12/26 10:44:58;;;;;;;10.32;2.05;;;10.30;99.90;;;;;;5046295;28;20487;-71
2023/12/26 10:47:26;;;;;;;20.20;3.03;;;10.30;99.90;;;;;;5033982;28;20033;-71
2023/12/26 10:49:55;;;;;;;13.63;2.50;;;10.40;99.90;;;;;;5045940;28;20044;-71
2023/12/26 10:52:22;;;;;;;11.73;2.53;;;10.40;99.90;;;;;;5046479;28;20029;-72
2023/12/26 10:54:51;;;;;;;14.38;2.55;;;10.40;99.90;;;;;;5045606;28;20522;-72
2023/12/26 10:57:18;;;;;;;11.32;2.05;;;10.50;99.90;;;;;;5046730;28;20025;-72
2023/12/26 13:52:10;;;;;;;10.30;1.90;;;10.00;99.90;;;;;;5036274;28;20067;-72
2023/12/26 13:55:13;;;;;;;12.63;2.10;;;10.10;99.90;;;;;;5032770;28;20574;-72
2023/12/26 13:58:16;;;;;;;10.55;2.17;;;10.10;99.90;;;;;;5045486;28;20055;-72
2023/12/26 14:01:20;;;;;;;6.97;1.35;;;10.10;99.90;;;;;;5045240;28;20564;-71
2023/12/26 14:04:23;;;;;;;10.80;1.67;;;10.00;99.90;;;;;;5045575;28;20033;-72
2023/12/26 14:07:26;;;;;;;10.02;1.60;;;10.00;99.90;;;;;;5034934;28;20029;-72
2023/12/26 14:10:29;;;;;;;8.15;1.92;;;10.00;99.90;;;;;;5045920;28;20025;-72
2023/12/26 14:13:32;;;;;;;7.20;2.03;;;10.00;99.90;;;;;;5047190;28;20052;-72
2023/12/26 14:16:35;;;;;;;6.50;1.33;;;10.00;99.90;;;;;;5047480;28;20079;-72
2023/12/26 14:19:38;;;;;;;11.32;1.52;;;9.90;99.90;;;;;;5047191;28;20369;-72
2023/12/26 14:22:42;;;;;;;7.78;1.83;;;9.90;99.90;;;;;;5036023;28;20024;-72
2023/12/26 14:25:45;;;;;;;6.60;1.50;;;9.90;99.90;;;;;;5047528;28;20028;-72
2023/12/26 14:28:30;;;;;;;8.13;1.80;;;9.90;99.90;;;;;;5047175;28;20781;-72
2023/12/26 14:30:55;;;;;;;8.18;1.50;;;9.90;99.90;;;;;;5046352;28;20035;-71
2023/12/26 14:33:21;;;;;;;9.35;2.42;;;9.90;99.90;;;;;;5047118;28;20028;-71
2023/12/26 14:35:50;;;;;;;8.77;1.60;;;9.80;99.90;;;;;;5047624;28;20060;-72
2023/12/26 14:38:16;;;;;;;8.82;1.60;;;9.80;99.90;;;;;;5046986;28;20025;-72
2023/12/26 14:40:44;;;;;;;10.52;1.95;;;9.80;99.90;;;;;;5040719;28;20055;-71
2023/12/26 14:43:09;;;;;;;10.25;1.85;;;9.80;99.90;;;;;;5029119;28;20083;-71
2023/12/26 14:45:35;;;;;;;10.98;1.95;;;9.80;99.90;;;;;;5047581;28;20021;-72
2023/12/26 14:48:00;;;;;;;10.13;2.20;;;9.80;99.90;;;;;;5046866;28;20114;-71
2023/12/26 14:50:26;;;;;;;12.02;1.90;;;9.80;99.90;;;;;;5047265;28;20025;-72
2023/12/26 14:52:52;;;;;;;9.20;1.45;;;9.80;99.90;;;;;;5046701;28;20025;-72
2023/12/26 14:55:18;;;;;;;6.97;1.83;;;9.80;99.90;;;;;;5045760;28;20047;-71
2023/12/26 14:57:44;;;;;;;11.88;1.88;;;9.80;99.90;;;;;;5047003;28;20525;-72
2023/12/26 15:00:10;;;;;;;9.48;1.35;;;9.80;99.90;;;;;;5046985;28;20483;-72
2023/12/26 15:02:36;;;;;;;9.60;1.45;;;9.80;99.90;;;;;;5046045;28;20024;-72
2023/12/26 15:05:02;;;;;;;8.40;1.60;;;9.80;99.90;;;;;;5043600;28;20052;-72
2023/12/26 15:07:27;;;;;;;13.07;2.20;;;9.70;99.90;;;;;;5047437;28;20028;-72
2023/12/26 15:09:53;;;;;;;13.65;2.03;;;9.70;99.90;;;;;;5031278;28;20021;-72
2023/12/26 15:12:19;;;;;;;8.27;1.70;;;9.70;99.90;;;;;;5047173;28;20498;-72
2023/12/26 15:14:45;;;;;;;7.63;1.65;;;9.70;99.90;;;;;;5046681;28;20088;-72
2023/12/26 15:17:11;;;;;;;9.35;1.60;;;9.70;99.90;;;;;;5046889;28;20017;-72
2023/12/26 15:19:37;;;;;;;10.32;1.80;;;9.70;99.90;;;;;;5027361;28;20067;-72
2023/12/26 15:22:03;;;;;;;6.93;1.60;;;9.70;99.90;;;;;;5046644;28;20025;-72
2023/12/26 15:24:29;;;;;;;12.27;3.00;;;9.70;99.90;;;;;;5046693;28;20021;-72
2023/12/26 15:26:54;;;;;;;8.85;2.08;;;9.60;99.90;;;;;;5046793;28;20557;-72
2023/12/26 15:29:20;;;;;;;9.55;2.13;;;9.60;99.90;;;;;;5046365;28;20029;-72
2023/12/26 15:31:46;;;;;;;8.93;1.90;;;9.70;99.90;;;;;;5046655;28;20386;-72
2023/12/26 15:34:12;;;;;;;9.32;2.30;;;9.70;99.90;;;;;;5046185;28;20399;-72
2023/12/26 15:36:38;;;;;;;11.68;1.92;;;9.70;99.90;;;;;;5045299;28;20025;-72
2023/12/26 15:39:04;;;;;;;5.65;1.45;;;9.60;99.90;;;;;;5032547;28;20032;-72
2023/12/26 15:41:30;;;;;;;9.32;2.38;;;9.60;99.90;;;;;;5046010;28;20041;-72